createdAt,value
2023-11-30T00:00:16.588Z,92520.78
2023-11-30T00:02:42.993Z,92516.00
2023-11-30T00:05:10.126Z,92510.84
2023-11-30T00:07:36.701Z,92513.44
2023-11-30T00:10:04.171Z,92514.41
2023-11-30T00:12:30.525Z,92513.81
2023-11-30T00:14:56.899Z,92508.41
2023-11-30T00:17:23.220Z,92505.00
2023-11-30T00:19:50.082Z,92503.50
2023-11-30T00:22:16.586Z,92503.22
2023-11-30T00:24:43.017Z,92504.41
2023-11-30T00:27:09.394Z,92503.72
2023-11-30T00:29:35.756Z,92450.53
2023-11-30T00:32:02.144Z,92499.94
2023-11-30T00:34:28.483Z,92502.13
2023-11-30T00:36:54.821Z,92505.03
2023-11-30T00:39:21.178Z,92496.34
2023-11-30T00:41:47.542Z,92487.91
2023-11-30T00:44:13.970Z,92483.69
2023-11-30T00:46:40.450Z,92505.84
2023-11-30T00:49:08.073Z,92496.63
2023-11-30T00:51:35.694Z,92503.69
2023-11-30T00:54:02.726Z,92496.31
2023-11-30T00:56:29.108Z,92500.53
2023-11-30T00:58:57.549Z,92497.44
2023-11-30T01:01:23.920Z,92494.34
2023-11-30T01:03:50.299Z,92495.50
2023-11-30T01:06:16.706Z,92498.38
2023-11-30T01:08:43.065Z,92487.78
2023-11-30T01:11:09.544Z,92489.53
2023-11-30T01:13:36.891Z,92478.28
2023-11-30T01:16:03.347Z,92482.69
2023-11-30T01:18:29.884Z,92482.75
2023-11-30T01:20:56.920Z,92485.00
2023-11-30T01:23:25.267Z,92477.06
2023-11-30T01:25:51.595Z,92484.09
2023-11-30T01:28:18.312Z,92474.88
2023-11-30T01:30:44.806Z,92474.88
2023-11-30T01:33:11.247Z,92478.09
2023-11-30T01:35:38.653Z,92475.56
2023-11-30T01:38:04.991Z,92462.16
2023-11-30T01:40:31.539Z,92455.63
2023-11-30T01:42:57.871Z,92458.63
2023-11-30T01:45:24.290Z,92461.03
2023-11-30T01:47:50.837Z,92457.34
2023-11-30T01:50:17.376Z,92457.03
2023-11-30T01:52:43.856Z,92456.44
2023-11-30T01:55:12.021Z,92462.22
2023-11-30T01:57:39.107Z,92452.38
2023-11-30T02:00:06.150Z,92470.84
2023-11-30T02:02:33.076Z,92456.28
2023-11-30T02:04:59.439Z,92448.88
2023-11-30T02:07:25.793Z,92446.66
2023-11-30T02:09:52.274Z,92439.28
2023-11-30T02:12:18.736Z,92433.25
2023-11-30T02:14:45.403Z,92431.00
2023-11-30T02:17:11.728Z,92432.28
2023-11-30T02:19:40.530Z,92419.66
2023-11-30T02:22:08.384Z,92414.69
2023-11-30T02:24:34.851Z,92424.28
2023-11-30T02:27:01.249Z,92432.91
2023-11-30T02:29:27.758Z,92439.94
2023-11-30T02:31:54.127Z,92436.75
2023-11-30T02:34:20.544Z,92431.31
2023-11-30T02:36:46.864Z,92440.94
2023-11-30T02:39:13.316Z,92431.69
2023-11-30T02:41:39.710Z,92426.88
2023-11-30T02:44:06.091Z,92429.13
2023-11-30T02:46:32.483Z,92429.28
2023-11-30T02:48:58.909Z,92425.00
2023-11-30T02:51:25.342Z,92426.59
2023-11-30T02:53:51.752Z,92424.81
2023-11-30T02:56:18.111Z,92415.41
2023-11-30T02:58:44.450Z,92420.53
2023-11-30T03:01:10.783Z,92413.78
2023-11-30T03:03:37.317Z,92407.44
2023-11-30T03:06:03.947Z,92417.19
2023-11-30T03:08:30.439Z,92411.59
2023-11-30T03:10:57.843Z,92400.72
2023-11-30T03:13:24.248Z,92415.88
2023-11-30T03:15:51.567Z,92424.69
2023-11-30T03:18:19.157Z,92406.44
2023-11-30T03:20:45.705Z,92424.50
2023-11-30T03:23:12.075Z,92413.22
2023-11-30T03:25:40.362Z,92393.38
2023-11-30T03:28:06.708Z,92418.94
2023-11-30T03:30:33.118Z,92411.59
2023-11-30T03:32:59.965Z,92419.09
2023-11-30T03:35:26.536Z,92408.75
2023-11-30T03:37:54.013Z,92380.13
2023-11-30T03:40:20.397Z,92373.06
2023-11-30T03:42:46.756Z,92385.69
2023-11-30T03:45:13.131Z,92399.09
2023-11-30T03:47:39.549Z,92384.41
2023-11-30T03:50:06.112Z,92390.16
2023-11-30T03:52:34.558Z,92371.81
2023-11-30T03:55:00.936Z,92389.84
2023-11-30T03:57:28.288Z,92387.47
2023-11-30T03:59:54.750Z,92387.00
2023-11-30T04:02:23.167Z,92395.94
2023-11-30T04:04:50.073Z,92389.53
2023-11-30T04:07:16.460Z,92383.78
2023-11-30T04:09:42.957Z,92374.84
2023-11-30T04:12:09.352Z,92387.31
2023-11-30T04:14:35.777Z,92368.13
2023-11-30T04:17:04.602Z,92373.25
2023-11-30T04:19:31.308Z,92356.91
2023-11-30T04:21:57.743Z,92363.03
2023-11-30T04:24:24.121Z,92361.72
2023-11-30T04:26:50.537Z,92366.19
2023-11-30T04:29:17.489Z,92341.56
2023-11-30T04:31:43.861Z,92345.41
2023-11-30T04:34:10.684Z,92355.97
2023-11-30T04:36:37.138Z,92339.97
2023-11-30T04:39:04.095Z,92350.53
2023-11-30T04:41:30.461Z,92364.91
2023-11-30T04:43:57.067Z,92354.38
2023-11-30T04:46:23.462Z,92356.59
2023-11-30T04:48:51.393Z,92346.66
2023-11-30T04:51:17.792Z,92342.50
2023-11-30T04:53:44.188Z,92338.66
2023-11-30T04:56:10.779Z,92326.19
2023-11-30T04:58:37.150Z,92319.09
2023-11-30T05:01:03.503Z,92321.06
2023-11-30T05:03:30.121Z,92312.34
2023-11-30T05:05:57.574Z,92321.06
2023-11-30T05:08:25.065Z,92311.28
2023-11-30T05:10:51.389Z,92309.50
2023-11-30T05:13:18.172Z,92313.03
2023-11-30T05:15:46.328Z,92314.94
2023-11-30T05:18:13.873Z,92315.06
2023-11-30T05:20:40.249Z,92312.03
2023-11-30T05:23:07.646Z,92322.13
2023-11-30T05:25:34.099Z,92306.44
2023-11-30T05:28:01.701Z,92312.97
2023-11-30T05:30:29.237Z,92299.19
2023-11-30T05:32:56.880Z,92294.53
2023-11-30T05:35:26.986Z,92302.03
2023-11-30T05:37:53.603Z,92293.41
2023-11-30T05:40:20.736Z,92283.47
2023-11-30T05:42:51.245Z,92282.81
2023-11-30T05:45:17.770Z,92283.47
2023-11-30T05:47:44.223Z,92281.50
2023-11-30T05:50:11.023Z,92280.78
2023-11-30T05:52:39.657Z,92275.41
2023-11-30T05:55:08.428Z,92268.34
2023-11-30T05:57:36.903Z,92261.31
2023-11-30T06:00:04.829Z,92266.78
2023-11-30T06:02:33.142Z,92259.69
2023-11-30T06:05:00.737Z,92254.91
2023-11-30T06:07:27.234Z,92256.19
2023-11-30T06:09:53.981Z,92253.91
2023-11-30T06:12:20.337Z,92248.91
2023-11-30T06:14:46.714Z,92242.66
2023-11-30T06:17:13.044Z,92249.69
2023-11-30T06:19:40.311Z,92248.44
2023-11-30T06:22:07.271Z,92249.69
2023-11-30T06:24:35.147Z,92248.69
2023-11-30T06:27:02.621Z,92255.44
2023-11-30T06:29:30.407Z,92250.97
2023-11-30T06:32:00.450Z,92240.94
2023-11-30T06:34:27.120Z,92242.28
2023-11-30T06:36:53.491Z,92252.91
2023-11-30T06:39:19.947Z,92248.41
2023-11-30T06:41:51.766Z,92242.66
2023-11-30T06:44:19.443Z,92230.22
2023-11-30T06:46:45.798Z,92243.66
2023-11-30T06:49:12.177Z,92239.78
2023-11-30T06:51:38.548Z,92238.25
2023-11-30T06:54:05.566Z,92241.13
2023-11-30T06:56:31.921Z,92244.00
2023-11-30T06:58:59.094Z,92239.50
2023-11-30T07:01:26.759Z,92235.69
2023-11-30T07:03:53.450Z,92242.59
2023-11-30T07:06:20.672Z,92236.94
2023-11-30T07:08:47.099Z,92234.97
2023-11-30T07:11:15.224Z,92233.81
2023-11-30T07:13:41.826Z,92231.09
2023-11-30T07:16:08.962Z,92230.97
2023-11-30T07:18:35.329Z,92223.91
2023-11-30T07:21:01.751Z,92226.50
2023-11-30T07:23:28.206Z,92230.03
2023-11-30T07:25:54.604Z,92237.41
2023-11-30T07:28:21.398Z,92229.56
2023-11-30T07:30:47.839Z,92226.38
2023-11-30T07:33:14.507Z,92229.22
2023-11-30T07:35:41.692Z,92232.88
2023-11-30T07:38:08.147Z,92234.50
2023-11-30T07:40:34.507Z,92233.03
2023-11-30T07:43:01.622Z,92232.50
2023-11-30T07:45:31.137Z,92241.47
2023-11-30T07:47:57.927Z,92237.47
2023-11-30T07:50:30.449Z,92233.16
2023-11-30T07:52:57.233Z,92232.47
2023-11-30T07:55:24.097Z,92231.56
2023-11-30T07:57:51.009Z,92229.91
2023-11-30T08:00:17.643Z,92226.00
2023-11-30T08:02:44.108Z,92230.50
2023-11-30T08:05:13.424Z,92232.72
2023-11-30T08:07:39.925Z,92236.94
2023-11-30T08:10:07.360Z,92235.38
2023-11-30T08:12:33.948Z,92235.06
2023-11-30T08:15:00.327Z,92236.59
2023-11-30T08:17:28.784Z,92233.66
2023-11-30T08:19:55.199Z,92231.81
2023-11-30T08:22:21.559Z,92228.94
2023-11-30T08:24:48.043Z,92226.66
2023-11-30T08:27:14.469Z,92225.44
2023-11-30T08:29:41.072Z,92221.88
2023-11-30T08:32:07.506Z,92219.16
2023-11-30T08:34:33.856Z,92222.47
2023-11-30T08:37:01.142Z,92220.53
2023-11-30T08:39:29.742Z,92228.50
2023-11-30T08:41:56.291Z,92233.97
2023-11-30T08:44:24.011Z,92227.28
2023-11-30T08:46:54.671Z,92231.03
2023-11-30T08:49:21.194Z,92235.16
2023-11-30T08:51:47.675Z,92228.63
2023-11-30T08:54:14.178Z,92225.81
2023-11-30T08:56:40.596Z,92218.28
2023-11-30T08:59:06.963Z,92216.31
2023-11-30T09:01:33.867Z,92213.13
2023-11-30T09:04:07.162Z,92203.63
2023-11-30T09:06:34.776Z,92207.16
2023-11-30T09:09:02.206Z,92202.63
2023-11-30T09:11:31.393Z,92203.63
2023-11-30T09:13:58.340Z,92190.38
2023-11-30T09:16:26.440Z,92196.75
2023-11-30T09:18:55.273Z,92205.94
2023-11-30T09:21:22.261Z,92198.78
2023-11-30T09:23:49.179Z,92202.78
2023-11-30T09:26:15.516Z,92192.50
2023-11-30T09:28:41.903Z,92193.38
2023-11-30T09:31:08.359Z,92190.75
2023-11-30T09:33:34.741Z,92195.16
2023-11-30T09:36:02.162Z,92197.47
2023-11-30T09:38:28.709Z,92196.41
2023-11-30T09:40:55.655Z,92188.09
2023-11-30T09:43:21.984Z,92179.56
2023-11-30T09:45:49.027Z,92180.56
2023-11-30T09:48:15.558Z,92172.84
2023-11-30T09:50:43.201Z,92175.84
2023-11-30T09:53:09.957Z,92165.66
2023-11-30T09:55:36.473Z,92161.25
2023-11-30T09:58:04.818Z,92163.28
2023-11-30T10:00:31.367Z,92151.59
2023-11-30T10:03:00.844Z,92148.75
2023-11-30T10:05:29.525Z,92143.44
2023-11-30T10:07:59.493Z,92146.88
2023-11-30T10:10:26.134Z,92122.16
2023-11-30T10:12:54.267Z,92124.84
2023-11-30T10:15:21.510Z,92117.38
2023-11-30T10:17:50.019Z,92111.03
2023-11-30T10:20:16.773Z,92112.81
2023-11-30T10:22:43.108Z,92107.47
2023-11-30T10:25:10.018Z,92093.50
2023-11-30T10:27:37.059Z,92101.31
2023-11-30T10:30:05.772Z,92097.22
2023-11-30T10:32:33.096Z,92100.69
2023-11-30T10:35:00.632Z,92099.28
2023-11-30T10:37:27.497Z,92091.59
2023-11-30T10:40:13.100Z,92089.28
2023-11-30T10:42:41.663Z,92078.91
2023-11-30T10:45:09.185Z,92080.84
2023-11-30T10:47:35.905Z,92074.22
2023-11-30T10:50:02.468Z,92073.78
2023-11-30T10:52:29.613Z,92066.13
2023-11-30T10:55:05.878Z,92066.91
2023-11-30T10:57:32.531Z,92061.63
2023-11-30T11:00:06.747Z,92063.69
2023-11-30T11:02:37.792Z,92063.03
2023-11-30T11:05:09.320Z,92061.09
2023-11-30T11:07:36.044Z,92060.31
2023-11-30T11:10:07.296Z,92057.34
2023-11-30T11:12:34.890Z,92049.16
2023-11-30T11:15:12.809Z,92056.25
2023-11-30T11:17:46.493Z,92053.56
2023-11-30T11:20:39.315Z,92045.66
2023-11-30T11:23:14.314Z,92041.63
2023-11-30T11:25:42.134Z,92044.25
2023-11-30T11:28:08.755Z,92049.53
2023-11-30T11:30:45.384Z,92039.75
2023-11-30T11:33:11.938Z,92039.38
2023-11-30T11:35:38.352Z,92037.78
2023-11-30T11:38:04.703Z,92041.69
2023-11-30T11:40:31.027Z,92045.25
2023-11-30T11:42:57.457Z,92047.81
2023-11-30T11:45:23.904Z,92044.19
2023-11-30T11:47:50.328Z,92044.88
2023-11-30T11:50:16.866Z,92048.16
2023-11-30T11:52:43.214Z,92039.00
2023-11-30T11:55:11.008Z,92047.78
2023-11-30T11:57:44.028Z,92038.78
2023-11-30T12:00:11.774Z,92050.03
2023-11-30T12:02:38.301Z,92029.19
2023-11-30T12:05:26.464Z,92048.56
2023-11-30T12:07:54.318Z,92049.41
2023-11-30T12:10:26.836Z,92035.06
2023-11-30T12:12:54.126Z,92029.31
2023-11-30T12:15:20.517Z,92025.50
2023-11-30T12:17:46.912Z,92020.47
2023-11-30T12:20:14.403Z,92005.53
2023-11-30T12:22:41.704Z,92008.25
2023-11-30T12:25:08.338Z,92004.81
2023-11-30T12:27:34.718Z,92006.34
2023-11-30T12:30:06.406Z,92001.56
2023-11-30T12:32:33.241Z,92008.41
2023-11-30T12:35:00.733Z,91996.25
2023-11-30T12:37:27.499Z,92006.44
2023-11-30T12:39:53.924Z,92003.25
2023-11-30T12:42:20.415Z,92015.28
2023-11-30T12:44:47.329Z,92001.81
2023-11-30T12:47:19.781Z,92009.63
2023-11-30T12:49:48.773Z,92011.97
2023-11-30T12:52:16.081Z,92010.38
2023-11-30T12:54:42.596Z,92017.19
2023-11-30T12:57:09.062Z,92014.47
2023-11-30T12:59:43.747Z,92020.44
2023-11-30T13:02:12.384Z,92015.22
2023-11-30T13:04:41.119Z,92003.84
2023-11-30T13:07:07.607Z,92004.81
2023-11-30T13:13:16.365Z,92006.16
2023-11-30T13:15:43.792Z,92005.38
2023-11-30T13:18:10.589Z,91994.47
2023-11-30T13:20:37.057Z,91998.28
2023-11-30T13:23:03.482Z,91996.28
2023-11-30T13:25:30.673Z,91998.66
2023-11-30T13:27:57.145Z,92006.56
2023-11-30T13:30:24.245Z,92004.56
2023-11-30T13:32:51.864Z,92001.81
2023-11-30T13:35:18.343Z,92001.06
2023-11-30T13:37:44.852Z,91996.72
2023-11-30T13:40:11.506Z,91999.50
2023-11-30T13:42:38.045Z,92005.47
2023-11-30T13:45:06.616Z,92003.03
2023-11-30T13:47:33.342Z,92012.13
2023-11-30T13:49:59.710Z,92014.31
2023-11-30T13:52:35.334Z,92014.16
2023-11-30T13:55:02.274Z,92010.13
2023-11-30T13:57:29.142Z,92010.16
2023-11-30T14:00:00.533Z,92014.91
2023-11-30T14:02:27.065Z,92027.94
2023-11-30T14:04:55.849Z,92024.00
2023-11-30T14:07:47.953Z,92031.97
2023-11-30T14:10:15.416Z,92032.25
2023-11-30T14:13:05.685Z,92041.66
2023-11-30T14:15:32.473Z,92045.81
2023-11-30T14:18:09.160Z,92047.50
2023-11-30T14:20:37.685Z,92044.06
2023-11-30T14:23:15.797Z,92047.16
2023-11-30T14:25:42.155Z,92044.44
2023-11-30T14:28:12.562Z,92046.03
2023-11-30T14:30:48.741Z,92035.00
2023-11-30T14:33:31.198Z,92041.25
2023-11-30T14:35:59.694Z,92043.97
2023-11-30T14:38:26.169Z,92032.81
2023-11-30T14:41:01.014Z,92043.50
2023-11-30T14:43:27.375Z,92040.78
2023-11-30T14:46:03.420Z,92047.50
2023-11-30T14:48:29.876Z,92045.09
2023-11-30T14:50:57.343Z,92050.97
2023-11-30T14:53:25.817Z,92050.19
2023-11-30T14:55:52.182Z,92046.72
2023-11-30T14:58:21.754Z,92041.53
2023-11-30T15:00:50.184Z,92037.13
2023-11-30T15:05:57.441Z,92046.94
2023-11-30T15:08:25.094Z,92039.78
2023-11-30T15:10:55.588Z,92047.69
2023-11-30T15:13:24.245Z,92067.03
2023-11-30T15:15:50.590Z,92054.34
2023-11-30T15:18:16.957Z,92063.84
2023-11-30T15:20:44.004Z,92064.22
2023-11-30T15:23:13.550Z,92058.72
2023-11-30T15:25:41.288Z,92060.31
2023-11-30T15:28:11.122Z,92056.75
2023-11-30T15:31:02.273Z,92058.34
2023-11-30T15:33:42.038Z,92050.03
2023-11-30T15:36:16.962Z,92053.56
2023-11-30T15:38:53.796Z,92055.53
2023-11-30T15:41:23.816Z,92049.16
2023-11-30T15:43:56.274Z,92058.22
2023-11-30T15:46:23.182Z,92056.25
2023-11-30T15:48:50.644Z,92051.50
2023-11-30T15:51:27.434Z,92057.22
2023-11-30T15:54:07.520Z,92052.72
2023-11-30T15:56:33.911Z,92048.78
2023-11-30T15:59:00.365Z,92055.53
2023-11-30T16:01:30.952Z,92055.91
2023-11-30T16:04:13.965Z,92059.06
2023-11-30T16:06:40.372Z,92062.66
2023-11-30T16:09:07.133Z,92061.03
2023-11-30T16:11:36.601Z,92064.94
2023-11-30T16:14:05.458Z,92069.72
2023-11-30T16:16:32.385Z,92067.78
2023-11-30T16:19:01.914Z,92071.31
2023-11-30T16:21:28.912Z,92071.31
2023-11-30T16:23:56.598Z,92067.34
2023-11-30T16:26:25.954Z,92069.72
2023-11-30T16:29:00.483Z,92063.00
2023-11-30T16:31:27.051Z,91984.69
2023-11-30T16:33:59.126Z,92053.94
2023-11-30T16:36:32.382Z,92050.03
2023-11-30T16:38:59.439Z,92050.81
2023-11-30T16:41:27.938Z,92046.03
2023-11-30T16:43:56.406Z,92050.03
2023-11-30T16:46:33.193Z,92047.28
2023-11-30T16:48:59.884Z,92034.22
2023-11-30T16:51:27.378Z,92034.22
2023-11-30T16:53:54.285Z,92039.00
2023-11-30T16:56:25.179Z,92034.59
2023-11-30T16:58:52.697Z,92032.63
2023-11-30T17:01:25.507Z,92036.63
2023-11-30T17:03:53.083Z,92044.16
2023-11-30T17:06:19.551Z,92038.88
2023-11-30T17:08:46.646Z,92032.25
2023-11-30T17:11:14.500Z,92033.03
2023-11-30T17:13:41.641Z,92018.81
2023-11-30T17:16:09.140Z,92017.56
2023-11-30T17:18:41.054Z,92021.09
2023-11-30T17:21:07.417Z,92028.22
2023-11-30T17:23:33.753Z,92021.09
2023-11-30T17:26:00.269Z,92021.59
2023-11-30T17:28:27.734Z,92025.94
2023-11-30T17:30:56.397Z,92026.75
2023-11-30T17:33:25.620Z,92027.94
2023-11-30T17:35:52.315Z,92024.41
2023-11-30T17:38:18.676Z,92027.22
2023-11-30T17:40:46.211Z,92038.25
2023-11-30T17:43:13.826Z,92037.50
2023-11-30T17:45:40.243Z,92041.22
2023-11-30T17:48:06.836Z,92024.03
2023-11-30T17:50:33.362Z,92031.88
2023-11-30T17:53:01.817Z,92032.25
2023-11-30T17:55:29.642Z,91992.59
2023-11-30T17:57:56.065Z,92039.47
2023-11-30T18:00:22.637Z,92035.53
2023-11-30T18:02:50.594Z,92041.44
2023-11-30T18:05:17.079Z,92038.59
2023-11-30T18:07:47.084Z,92039.84
2023-11-30T18:10:16.815Z,92049.28
2023-11-30T18:12:43.275Z,92042.97
2023-11-30T18:15:09.859Z,92049.16
2023-11-30T18:17:38.262Z,92043.66
2023-11-30T18:20:05.069Z,92044.50
2023-11-30T18:22:34.073Z,92061.03
2023-11-30T18:25:01.069Z,92066.19
2023-11-30T18:27:28.102Z,92062.25
2023-11-30T18:29:56.575Z,92075.75
2023-11-30T18:32:23.004Z,92079.91
2023-11-30T18:34:49.470Z,92066.59
2023-11-30T18:37:15.847Z,92048.06
2023-11-30T18:39:44.225Z,92049.59
2023-11-30T18:42:10.676Z,92052.84
2023-11-30T18:44:37.056Z,92043.09
2023-11-30T18:47:05.515Z,92043.00
2023-11-30T18:49:32.166Z,92041.44
2023-11-30T18:51:58.601Z,92046.81
2023-11-30T18:54:25.140Z,92039.94
2023-11-30T18:56:51.512Z,92037.72
2023-11-30T18:59:18.056Z,92036.16
2023-11-30T19:01:44.903Z,92034.72
2023-11-30T19:04:13.116Z,92027.84
2023-11-30T19:06:39.673Z,92036.03
2023-11-30T19:09:07.492Z,92040.56
2023-11-30T19:11:35.022Z,92040.81
2023-11-30T19:14:01.483Z,92032.06
2023-11-30T19:16:28.936Z,92025.50
2023-11-30T19:18:55.431Z,92022.72
2023-11-30T19:21:22.087Z,92018.13
2023-11-30T19:23:48.982Z,92019.84
2023-11-30T19:26:15.529Z,92013.91
2023-11-30T19:28:42.954Z,92012.06
2023-11-30T19:31:10.156Z,92019.16
2023-11-30T19:33:37.681Z,92009.25
2023-11-30T19:36:05.518Z,92005.03
2023-11-30T19:38:33.761Z,92008.88
2023-11-30T19:41:01.484Z,92017.16
2023-11-30T19:43:29.000Z,92021.88
2023-11-30T19:45:56.521Z,92008.50
2023-11-30T19:48:23.914Z,92022.59
2023-11-30T19:50:51.357Z,92010.09
2023-11-30T19:53:18.825Z,92016.09
2023-11-30T19:55:47.623Z,92026.97
2023-11-30T19:58:15.532Z,92027.75
2023-11-30T20:00:44.467Z,92025.78
2023-11-30T20:03:12.533Z,92032.88
2023-11-30T20:05:41.147Z,92034.84
2023-11-30T20:08:07.651Z,92035.19
2023-11-30T20:10:34.230Z,92022.34
2023-11-30T20:13:03.512Z,92017.94
2023-11-30T20:15:31.641Z,92014.75
2023-11-30T20:17:58.449Z,92005.06
2023-11-30T20:20:25.100Z,92007.28
2023-11-30T20:22:51.533Z,92016.59
2023-11-30T20:25:18.098Z,92006.53
2023-11-30T20:27:44.589Z,92012.06
2023-11-30T20:30:11.772Z,91963.97
2023-11-30T20:32:39.288Z,92039.09
2023-11-30T20:35:05.976Z,92053.53
2023-11-30T20:37:33.375Z,92053.16
2023-11-30T20:40:00.861Z,92072.16
2023-11-30T20:42:28.491Z,92074.44
2023-11-30T20:44:55.885Z,92092.25
2023-11-30T20:47:24.688Z,92094.59
2023-11-30T20:49:51.339Z,92086.25
2023-11-30T20:52:19.267Z,92077.19
2023-11-30T20:54:45.675Z,92080.25
2023-11-30T20:57:14.338Z,92068.50
2023-11-30T20:59:42.615Z,92075.38
2023-11-30T21:02:09.404Z,92078.97
2023-11-30T21:04:43.148Z,92075.47
2023-11-30T21:07:11.533Z,92075.53
2023-11-30T21:09:38.004Z,92070.53
2023-11-30T21:12:04.455Z,92071.50
2023-11-30T21:14:32.932Z,92068.75
2023-11-30T21:16:59.308Z,92081.38
2023-11-30T21:19:28.723Z,92068.75
2023-11-30T21:21:55.113Z,92077.91
2023-11-30T21:24:22.036Z,92090.03
2023-11-30T21:26:48.438Z,92085.88
2023-11-30T21:29:17.880Z,92110.25
2023-11-30T21:31:44.385Z,92094.59
2023-11-30T21:34:10.887Z,92115.38
2023-11-30T21:36:42.985Z,92114.13
2023-11-30T21:39:10.038Z,92102.53
2023-11-30T21:41:36.595Z,92100.41
2023-11-30T21:44:02.970Z,92117.91
2023-11-30T21:46:30.583Z,92107.44
2023-11-30T21:48:57.029Z,92118.81
2023-11-30T21:51:28.825Z,92098.16
2023-11-30T21:53:55.179Z,92093.63
2023-11-30T21:56:24.723Z,92094.47
2023-11-30T21:58:51.118Z,92089.56
2023-11-30T22:01:17.684Z,92087.88
2023-11-30T22:03:44.352Z,92086.50
2023-11-30T22:06:10.919Z,92089.94
2023-11-30T22:08:37.264Z,92073.63
2023-11-30T22:11:03.674Z,92067.03
2023-11-30T22:13:30.036Z,92073.50
2023-11-30T22:16:00.275Z,92073.84
2023-11-30T22:18:33.075Z,92070.91
2023-11-30T22:21:02.529Z,92063.56
2023-11-30T22:23:28.956Z,92073.34
2023-11-30T22:26:01.997Z,92062.66
2023-11-30T22:28:30.492Z,92063.91
2023-11-30T22:30:56.881Z,92070.56
2023-11-30T22:33:27.441Z,92088.56
2023-11-30T22:35:53.916Z,92090.19
2023-11-30T22:38:20.288Z,92101.25
2023-11-30T22:40:46.651Z,92106.47
2023-11-30T22:43:13.521Z,92104.38
2023-11-30T22:45:39.918Z,92104.31
2023-11-30T22:48:06.566Z,92103.16
2023-11-30T22:50:33.172Z,92086.59
2023-11-30T22:52:59.688Z,92086.97
2023-11-30T22:55:26.211Z,92086.19
2023-11-30T22:57:54.283Z,92087.19
2023-11-30T23:00:21.555Z,92090.84
2023-11-30T23:02:48.971Z,92094.50
2023-11-30T23:05:20.663Z,92088.31
2023-11-30T23:07:47.140Z,92089.81
2023-11-30T23:10:16.404Z,92091.50
2023-11-30T23:12:42.817Z,92084.91
2023-11-30T23:15:09.536Z,92089.53
2023-11-30T23:17:36.247Z,92093.97
2023-11-30T23:20:02.573Z,92089.41
2023-11-30T23:22:31.052Z,92094.59
2023-11-30T23:24:57.443Z,92098.16
2023-11-30T23:27:23.869Z,92086.97
2023-11-30T23:29:51.179Z,92072.78
2023-11-30T23:32:17.918Z,92078.28
2023-11-30T23:34:45.072Z,92075.44
2023-11-30T23:37:11.441Z,92076.94
2023-11-30T23:39:37.939Z,92073.03
2023-11-30T23:42:04.482Z,92069.47
2023-11-30T23:44:30.867Z,92067.91
2023-11-30T23:47:00.353Z,92069.09
2023-11-30T23:49:27.069Z,92067.16
2023-11-30T23:51:53.444Z,92066.03
2023-11-30T23:54:20.592Z,92058.81
2023-11-30T23:56:52.718Z,92071.38
2023-11-30T23:59:19.081Z,92077.00
